sensor_id;sensor_type;location;lat;lon;timestamp;temperature;humidity
23556;DHT22;11956;53.184;8.578;2022-12-18T00:02:35;-5.90;99.90
23556;DHT22;11956;53.184;8.578;2022-12-18T00:05:36;-5.80;99.90
23556;DHT22;11956;53.184;8.578;2022-12-18T00:08:37;-5.90;99.90
23556;DHT22;11956;53.184;8.578;2022-12-18T00:11:39;-5.80;99.90
23556;DHT22;11956;53.184;8.578;2022-12-18T00:14:39;-5.80;99.90
23556;DHT22;11956;53.184;8.578;2022-12-18T00:17:40;-5.80;99.90
23556;DHT22;11956;53.184;8.578;2022-12-18T00:20:41;-5.80;99.90
23556;DHT22;11956;53.184;8.578;2022-12-18T00:23:44;-5.80;99.90
23556;DHT22;11956;53.184;8.578;2022-12-18T00:26:45;-5.90;99.90
23556;DHT22;11956;53.184;8.578;2022-12-18T00:29:46;-6.00;99.90
23556;DHT22;11956;53.184;8.578;2022-12-18T00:32:48;-5.90;99.90
23556;DHT22;11956;53.184;8.578;2022-12-18T00:35:49;-5.90;99.90
23556;DHT22;11956;53.184;8.578;2022-12-18T00:38:50;-5.90;99.90
23556;DHT22;11956;53.184;8.578;2022-12-18T00:41:52;-5.90;99.90
23556;DHT22;11956;53.184;8.578;2022-12-18T00:45:11;-5.90;99.90
23556;DHT22;11956;53.184;8.578;2022-12-18T00:48:12;-5.90;99.90
23556;DHT22;11956;53.184;8.578;2022-12-18T00:51:13;-5.90;99.90
23556;DHT22;11956;53.184;8.578;2022-12-18T00:54:14;-6.00;99.90
23556;DHT22;11956;53.184;8.578;2022-12-18T00:57:15;-5.90;99.90
23556;DHT22;11956;53.184;8.578;2022-12-18T01:00:18;-6.00;99.90
23556;DHT22;11956;53.184;8.578;2022-12-18T01:03:19;-6.00;99.90
23556;DHT22;11956;53.184;8.578;2022-12-18T01:06:20;-6.10;99.90
23556;DHT22;11956;53.184;8.578;2022-12-18T01:09:21;-6.10;99.90
23556;DHT22;11956;53.184;8.578;2022-12-18T01:12:22;-6.10;99.90
23556;DHT22;11956;53.184;8.578;2022-12-18T01:15:24;-6.10;99.90
23556;DHT22;11956;53.184;8.578;2022-12-18T01:18:25;-6.10;99.90
23556;DHT22;11956;53.184;8.578;2022-12-18T01:21:27;-6.10;99.90
23556;DHT22;11956;53.184;8.578;2022-12-18T01:24:28;-6.10;99.90
23556;DHT22;11956;53.184;8.578;2022-12-18T01:27:29;-6.20;99.90
23556;DHT22;11956;53.184;8.578;2022-12-18T01:30:30;-6.20;99.90
23556;DHT22;11956;53.184;8.578;2022-12-18T01:33:31;-6.20;99.90
23556;DHT22;11956;53.184;8.578;2022-12-18T01:36:34;-6.20;99.90
23556;DHT22;11956;53.184;8.578;2022-12-18T01:39:37;-6.20;99.90
23556;DHT22;11956;53.184;8.578;2022-12-18T01:42:38;-6.10;99.90
23556;DHT22;11956;53.184;8.578;2022-12-18T01:45:39;-6.10;99.90
23556;DHT22;11956;53.184;8.578;2022-12-18T01:48:40;-6.10;99.90
23556;DHT22;11956;53.184;8.578;2022-12-18T01:51:41;-6.10;99.90
23556;DHT22;11956;53.184;8.578;2022-12-18T01:54:42;-6.10;99.90
23556;DHT22;11956;53.184;8.578;2022-12-18T01:57:43;-6.10;99.90
23556;DHT22;11956;53.184;8.578;2022-12-18T02:00:45;-6.10;99.90
23556;DHT22;11956;53.184;8.578;2022-12-18T02:03:46;-6.10;99.90
23556;DHT22;11956;53.184;8.578;2022-12-18T02:07:28;-6.10;99.90
23556;DHT22;11956;53.184;8.578;2022-12-18T02:14:40;-6.10;99.90
23556;DHT22;11956;53.184;8.578;2022-12-18T02:18:42;-6.10;99.90
23556;DHT22;11956;53.184;8.578;2022-12-18T02:21:57;-6.10;99.90
23556;DHT22;11956;53.184;8.578;2022-12-18T02:28:30;-6.10;99.90
23556;DHT22;11956;53.184;8.578;2022-12-18T02:31:45;-6.10;99.90
23556;DHT22;11956;53.184;8.578;2022-12-18T02:34:51;-6.20;99.90
23556;DHT22;11956;53.184;8.578;2022-12-18T02:37:54;-6.20;99.90
23556;DHT22;11956;53.184;8.578;2022-12-18T02:40:57;-6.30;99.90
23556;DHT22;11956;53.184;8.578;2022-12-18T02:44:06;-6.30;99.90
23556;DHT22;11956;53.184;8.578;2022-12-18T02:47:11;-6.30;99.90
23556;DHT22;11956;53.184;8.578;2022-12-18T02:50:34;-6.30;99.90
23556;DHT22;11956;53.184;8.578;2022-12-18T02:53:43;-6.20;99.90
23556;DHT22;11956;53.184;8.578;2022-12-18T02:56:51;-6.20;99.90
23556;DHT22;11956;53.184;8.578;2022-12-18T03:03:40;-6.20;99.90
23556;DHT22;11956;53.184;8.578;2022-12-18T03:06:57;-6.10;99.90
23556;DHT22;11956;53.184;8.578;2022-12-18T03:10:00;-6.20;99.90
23556;DHT22;11956;53.184;8.578;2022-12-18T03:13:03;-6.20;99.90
23556;DHT22;11956;53.184;8.578;2022-12-18T03:16:09;-6.20;99.90
23556;DHT22;11956;53.184;8.578;2022-12-18T03:19:16;-6.10;99.90
23556;DHT22;11956;53.184;8.578;2022-12-18T03:22:27;-6.20;99.90
23556;DHT22;11956;53.184;8.578;2022-12-18T03:25:32;-6.20;99.90
23556;DHT22;11956;53.184;8.578;2022-12-18T03:28:39;-6.20;99.90
23556;DHT22;11956;53.184;8.578;2022-12-18T03:31:49;-6.20;99.90
23556;DHT22;11956;53.184;8.578;2022-12-18T03:34:57;-6.20;99.90
23556;DHT22;11956;53.184;8.578;2022-12-18T03:38:02;-6.10;99.90
23556;DHT22;11956;53.184;8.578;2022-12-18T03:41:56;-6.10;99.90
23556;DHT22;11956;53.184;8.578;2022-12-18T03:48:31;-6.10;99.90
23556;DHT22;11956;53.184;8.578;2022-12-18T03:51:54;-6.00;99.90
23556;DHT22;11956;53.184;8.578;2022-12-18T03:55:02;-6.00;99.90
23556;DHT22;11956;53.184;8.578;2022-12-18T03:58:06;-6.00;99.90
23556;DHT22;11956;53.184;8.578;2022-12-18T04:01:26;-5.90;99.90
23556;DHT22;11956;53.184;8.578;2022-12-18T04:04:31;-5.90;99.90
23556;DHT22;11956;53.184;8.578;2022-12-18T04:07:36;-5.90;99.90
23556;DHT22;11956;53.184;8.578;2022-12-18T04:10:40;-5.80;99.90
23556;DHT22;11956;53.184;8.578;2022-12-18T04:13:42;-5.80;99.90
23556;DHT22;11956;53.184;8.578;2022-12-18T04:16:50;-5.80;99.90
23556;DHT22;11956;53.184;8.578;2022-12-18T04:19:55;-5.70;99.90
23556;DHT22;11956;53.184;8.578;2022-12-18T04:22:58;-5.70;99.90
23556;DHT22;11956;53.184;8.578;2022-12-18T04:25:59;-5.70;99.90
23556;DHT22;11956;53.184;8.578;2022-12-18T04:29:20;-5.60;99.90
23556;DHT22;11956;53.184;8.578;2022-12-18T04:32:21;-5.60;99.90
23556;DHT22;11956;53.184;8.578;2022-12-18T04:35:23;-5.70;99.90
23556;DHT22;11956;53.184;8.578;2022-12-18T04:38:24;-5.70;99.90
23556;DHT22;11956;53.184;8.578;2022-12-18T04:41:32;-5.70;99.90
23556;DHT22;11956;53.184;8.578;2022-12-18T04:44:34;-5.70;99.90
23556;DHT22;11956;53.184;8.578;2022-12-18T04:47:34;-5.70;99.90
23556;DHT22;11956;53.184;8.578;2022-12-18T04:50:37;-5.70;99.90
23556;DHT22;11956;53.184;8.578;2022-12-18T04:53:37;-5.70;99.90
23556;DHT22;11956;53.184;8.578;2022-12-18T04:56:39;-5.70;99.90
23556;DHT22;11956;53.184;8.578;2022-12-18T04:59:40;-5.70;99.90
23556;DHT22;11956;53.184;8.578;2022-12-18T05:02:41;-5.70;99.90
23556;DHT22;11956;53.184;8.578;2022-12-18T05:05:41;-5.70;99.90
23556;DHT22;11956;53.184;8.578;2022-12-18T05:08:42;-5.70;99.90
23556;DHT22;11956;53.184;8.578;2022-12-18T05:11:43;-5.70;99.90
23556;DHT22;11956;53.184;8.578;2022-12-18T05:14:44;-5.70;99.90
23556;DHT22;11956;53.184;8.578;2022-12-18T05:17:45;-5.70;99.90
23556;DHT22;11956;53.184;8.578;2022-12-18T05:20:46;-5.80;99.90
23556;DHT22;11956;53.184;8.578;2022-12-18T05:23:46;-5.80;99.90
23556;DHT22;11956;53.184;8.578;2022-12-18T05:26:47;-5.80;99.90
23556;DHT22;11956;53.184;8.578;2022-12-18T05:29:48;-5.90;99.90
23556;DHT22;11956;53.184;8.578;2022-12-18T05:32:49;-5.90;99.90
23556;DHT22;11956;53.184;8.578;2022-12-18T05:35:55;-5.90;99.90
23556;DHT22;11956;53.184;8.578;2022-12-18T05:38:57;-5.90;99.90
23556;DHT22;11956;53.184;8.578;2022-12-18T05:41:58;-5.90;99.90
23556;DHT22;11956;53.184;8.578;2022-12-18T05:44:58;-5.90;99.90
23556;DHT22;11956;53.184;8.578;2022-12-18T05:47:59;-5.80;99.90
23556;DHT22;11956;53.184;8.578;2022-12-18T05:51:06;-5.80;99.90
23556;DHT22;11956;53.184;8.578;2022-12-18T05:54:08;-5.80;99.90
23556;DHT22;11956;53.184;8.578;2022-12-18T05:57:09;-5.70;99.90
23556;DHT22;11956;53.184;8.578;2022-12-18T06:00:11;-5.70;99.90
23556;DHT22;11956;53.184;8.578;2022-12-18T06:03:15;-5.70;99.90
23556;DHT22;11956;53.184;8.578;2022-12-18T06:06:25;-5.70;99.90
23556;DHT22;11956;53.184;8.578;2022-12-18T06:09:27;-5.70;99.90
23556;DHT22;11956;53.184;8.578;2022-12-18T06:12:29;-5.70;99.90
23556;DHT22;11956;53.184;8.578;2022-12-18T06:15:30;-5.70;99.90
23556;DHT22;11956;53.184;8.578;2022-12-18T06:18:32;-5.70;99.90
23556;DHT22;11956;53.184;8.578;2022-12-18T06:21:33;-5.60;99.90
23556;DHT22;11956;53.184;8.578;2022-12-18T06:24:34;-5.70;99.90
23556;DHT22;11956;53.184;8.578;2022-12-18T06:27:35;-5.70;99.90
23556;DHT22;11956;53.184;8.578;2022-12-18T06:30:36;-5.70;99.90
23556;DHT22;11956;53.184;8.578;2022-12-18T06:33:38;-5.70;99.90
23556;DHT22;11956;53.184;8.578;2022-12-18T06:36:39;-5.70;99.90
23556;DHT22;11956;53.184;8.578;2022-12-18T06:39:40;-5.60;99.90
23556;DHT22;11956;53.184;8.578;2022-12-18T06:42:40;-5.60;99.90
23556;DHT22;11956;53.184;8.578;2022-12-18T06:45:41;-5.60;99.90
23556;DHT22;11956;53.184;8.578;2022-12-18T06:48:42;-5.60;99.90
23556;DHT22;11956;53.184;8.578;2022-12-18T06:51:43;-5.60;99.90
23556;DHT22;11956;53.184;8.578;2022-12-18T06:54:44;-5.60;99.90
23556;DHT22;11956;53.184;8.578;2022-12-18T06:57:45;-5.60;99.90
23556;DHT22;11956;53.184;8.578;2022-12-18T07:00:46;-5.60;99.90
23556;DHT22;11956;53.184;8.578;2022-12-18T07:03:51;-5.60;99.90
23556;DHT22;11956;53.184;8.578;2022-12-18T07:06:52;-5.70;99.90
23556;DHT22;11956;53.184;8.578;2022-12-18T07:09:53;-5.60;99.90
23556;DHT22;11956;53.184;8.578;2022-12-18T07:12:54;-5.70;99.90
23556;DHT22;11956;53.184;8.578;2022-12-18T07:15:55;-5.70;99.90
23556;DHT22;11956;53.184;8.578;2022-12-18T07:18:56;-5.60;99.90
23556;DHT22;11956;53.184;8.578;2022-12-18T07:21:57;-5.60;99.90
23556;DHT22;11956;53.184;8.578;2022-12-18T07:24:58;-5.70;99.90
23556;DHT22;11956;53.184;8.578;2022-12-18T07:27:59;-5.70;99.90
23556;DHT22;11956;53.184;8.578;2022-12-18T07:31:04;-5.70;99.90
23556;DHT22;11956;53.184;8.578;2022-12-18T07:34:13;-5.70;99.90
23556;DHT22;11956;53.184;8.578;2022-12-18T07:37:15;-5.60;99.90
23556;DHT22;11956;53.184;8.578;2022-12-18T07:40:16;-5.60;99.90
23556;DHT22;11956;53.184;8.578;2022-12-18T07:43:17;-5.60;99.90
23556;DHT22;11956;53.184;8.578;2022-12-18T07:46:18;-5.60;99.90
23556;DHT22;11956;53.184;8.578;2022-12-18T07:49:19;-5.60;99.90
23556;DHT22;11956;53.184;8.578;2022-12-18T07:52:21;-5.60;99.90
23556;DHT22;11956;53.184;8.578;2022-12-18T07:55:22;-5.60;99.90
23556;DHT22;11956;53.184;8.578;2022-12-18T07:58:22;-5.60;99.90
23556;DHT22;11956;53.184;8.578;2022-12-18T08:01:23;-5.60;99.90
23556;DHT22;11956;53.184;8.578;2022-12-18T08:04:25;-5.60;99.90
23556;DHT22;11956;53.184;8.578;2022-12-18T08:07:26;-5.60;99.90
23556;DHT22;11956;53.184;8.578;2022-12-18T08:10:27;-5.50;99.90
23556;DHT22;11956;53.184;8.578;2022-12-18T08:13:28;-5.40;99.90
23556;DHT22;11956;53.184;8.578;2022-12-18T08:16:29;-5.30;99.90
23556;DHT22;11956;53.184;8.578;2022-12-18T08:19:30;-5.20;99.90
23556;DHT22;11956;53.184;8.578;2022-12-18T08:22:34;-5.00;99.90
23556;DHT22;11956;53.184;8.578;2022-12-18T08:25:38;-4.90;99.90
23556;DHT22;11956;53.184;8.578;2022-12-18T08:28:39;-4.80;99.90
23556;DHT22;11956;53.184;8.578;2022-12-18T08:31:40;-4.50;99.90
23556;DHT22;11956;53.184;8.578;2022-12-18T08:34:41;-4.20;99.90
23556;DHT22;11956;53.184;8.578;2022-12-18T08:37:42;-4.10;99.90
23556;DHT22;11956;53.184;8.578;2022-12-18T08:40:43;-3.80;99.90
23556;DHT22;11956;53.184;8.578;2022-12-18T08:43:44;-3.00;99.90
23556;DHT22;11956;53.184;8.578;2022-12-18T08:47:07;-2.00;99.90
23556;DHT22;11956;53.184;8.578;2022-12-18T08:50:09;-1.90;99.90
23556;DHT22;11956;53.184;8.578;2022-12-18T08:53:12;-2.10;99.90
23556;DHT22;11956;53.184;8.578;2022-12-18T08:56:14;-1.80;99.90
23556;DHT22;11956;53.184;8.578;2022-12-18T08:59:18;-1.70;99.90
23556;DHT22;11956;53.184;8.578;2022-12-18T09:02:19;-0.80;99.90
23556;DHT22;11956;53.184;8.578;2022-12-18T09:05:20;0.40;99.90
23556;DHT22;11956;53.184;8.578;2022-12-18T09:08:21;0.80;99.90
23556;DHT22;11956;53.184;8.578;2022-12-18T09:11:25;0.20;99.90
23556;DHT22;11956;53.184;8.578;2022-12-18T09:14:27;-0.20;99.90
23556;DHT22;11956;53.184;8.578;2022-12-18T09:17:27;0.40;99.90
23556;DHT22;11956;53.184;8.578;2022-12-18T09:20:29;-0.50;99.90
23556;DHT22;11956;53.184;8.578;2022-12-18T09:23:30;-0.70;99.90
23556;DHT22;11956;53.184;8.578;2022-12-18T09:26:31;-1.00;99.90
23556;DHT22;11956;53.184;8.578;2022-12-18T09:29:32;-1.80;99.90
23556;DHT22;11956;53.184;8.578;2022-12-18T09:32:33;-1.70;99.90
23556;DHT22;11956;53.184;8.578;2022-12-18T09:35:38;-1.50;99.90
23556;DHT22;11956;53.184;8.578;2022-12-18T09:38:40;-1.40;99.90
23556;DHT22;11956;53.184;8.578;2022-12-18T09:41:52;-1.10;99.90
23556;DHT22;11956;53.184;8.578;2022-12-18T09:44:56;-1.50;99.90
23556;DHT22;11956;53.184;8.578;2022-12-18T09:47:59;-1.90;99.90
23556;DHT22;11956;53.184;8.578;2022-12-18T09:51:10;-2.00;99.90
23556;DHT22;11956;53.184;8.578;2022-12-18T09:54:42;-2.00;99.90
23556;DHT22;11956;53.184;8.578;2022-12-18T09:57:55;-1.90;99.90
23556;DHT22;11956;53.184;8.578;2022-12-18T10:00:58;-1.90;99.90
23556;DHT22;11956;53.184;8.578;2022-12-18T10:03:59;-2.10;99.90
23556;DHT22;11956;53.184;8.578;2022-12-18T10:14:30;-2.80;99.90
23556;DHT22;11956;53.184;8.578;2022-12-18T10:20:41;-2.50;99.90
23556;DHT22;11956;53.184;8.578;2022-12-18T10:24:30;-2.10;99.90
23556;DHT22;11956;53.184;8.578;2022-12-18T10:27:42;-1.70;99.90
23556;DHT22;11956;53.184;8.578;2022-12-18T10:30:44;-1.40;99.90
23556;DHT22;11956;53.184;8.578;2022-12-18T10:33:46;-1.90;99.90
23556;DHT22;11956;53.184;8.578;2022-12-18T10:36:47;-2.00;99.90
23556;DHT22;11956;53.184;8.578;2022-12-18T10:40:12;-1.80;99.90
23556;DHT22;11956;53.184;8.578;2022-12-18T10:43:16;-2.10;99.90
23556;DHT22;11956;53.184;8.578;2022-12-18T10:46:21;-2.30;99.90
23556;DHT22;11956;53.184;8.578;2022-12-18T10:49:29;-2.20;99.90
23556;DHT22;11956;53.184;8.578;2022-12-18T10:52:32;-2.30;99.90
23556;DHT22;11956;53.184;8.578;2022-12-18T10:55:38;-2.30;99.90
23556;DHT22;11956;53.184;8.578;2022-12-18T10:58:40;-2.30;99.90
23556;DHT22;11956;53.184;8.578;2022-12-18T11:04:56;-2.20;99.90
23556;DHT22;11956;53.184;8.578;2022-12-18T11:07:58;-2.20;99.90
23556;DHT22;11956;53.184;8.578;2022-12-18T11:11:00;-2.20;99.90
23556;DHT22;11956;53.184;8.578;2022-12-18T11:14:12;-2.20;99.90
23556;DHT22;11956;53.184;8.578;2022-12-18T11:17:19;-2.20;99.90
23556;DHT22;11956;53.184;8.578;2022-12-18T11:20:34;-2.10;99.90
23556;DHT22;11956;53.184;8.578;2022-12-18T11:23:37;-1.90;99.90
23556;DHT22;11956;53.184;8.578;2022-12-18T11:26:49;-2.00;99.90
23556;DHT22;11956;53.184;8.578;2022-12-18T11:29:51;-2.00;99.90
23556;DHT22;11956;53.184;8.578;2022-12-18T11:33:20;-1.90;99.90
23556;DHT22;11956;53.184;8.578;2022-12-18T11:36:22;-1.80;99.90
23556;DHT22;11956;53.184;8.578;2022-12-18T11:39:33;-1.70;99.90
23556;DHT22;11956;53.184;8.578;2022-12-18T11:42:41;-1.50;99.90
23556;DHT22;11956;53.184;8.578;2022-12-18T11:45:54;-1.50;99.90
23556;DHT22;11956;53.184;8.578;2022-12-18T11:49:20;-1.40;99.90
23556;DHT22;11956;53.184;8.578;2022-12-18T11:52:37;-1.30;99.90
23556;DHT22;11956;53.184;8.578;2022-12-18T12:20:36;-1.10;99.90
23556;DHT22;11956;53.184;8.578;2022-12-18T12:31:20;-1.00;99.90
23556;DHT22;11956;53.184;8.578;2022-12-18T12:38:14;-0.80;99.90
23556;DHT22;11956;53.184;8.578;2022-12-18T12:41:20;-0.90;99.90
23556;DHT22;11956;53.184;8.578;2022-12-18T12:44:54;-1.00;99.90
23556;DHT22;11956;53.184;8.578;2022-12-18T12:47:57;-1.00;99.90
23556;DHT22;11956;53.184;8.578;2022-12-18T12:51:06;-1.00;99.90
23556;DHT22;11956;53.184;8.578;2022-12-18T12:54:17;-1.10;99.90
23556;DHT22;11956;53.184;8.578;2022-12-18T12:57:31;-1.10;99.90
23556;DHT22;11956;53.184;8.578;2022-12-18T13:00:54;-1.20;99.90
23556;DHT22;11956;53.184;8.578;2022-12-18T13:07:45;-1.10;99.90
23556;DHT22;11956;53.184;8.578;2022-12-18T13:10:50;-1.10;99.90
23556;DHT22;11956;53.184;8.578;2022-12-18T13:14:42;-1.20;99.90
23556;DHT22;11956;53.184;8.578;2022-12-18T13:21:34;-1.10;99.90
23556;DHT22;11956;53.184;8.578;2022-12-18T13:25:36;-1.10;99.90
23556;DHT22;11956;53.184;8.578;2022-12-18T13:28:58;-1.20;99.90
23556;DHT22;11956;53.184;8.578;2022-12-18T13:32:21;-1.10;99.90
23556;DHT22;11956;53.184;8.578;2022-12-18T13:38:37;-1.10;99.90
23556;DHT22;11956;53.184;8.578;2022-12-18T13:45:41;-1.10;99.90
23556;DHT22;11956;53.184;8.578;2022-12-18T13:52:00;-1.20;99.90
23556;DHT22;11956;53.184;8.578;2022-12-18T13:55:04;-1.20;99.90
23556;DHT22;11956;53.184;8.578;2022-12-18T13:58:11;-1.10;99.90
23556;DHT22;11956;53.184;8.578;2022-12-18T14:01:22;-1.10;99.90
23556;DHT22;11956;53.184;8.578;2022-12-18T14:04:34;-1.00;99.90
23556;DHT22;11956;53.184;8.578;2022-12-18T14:07:36;-1.00;99.90
23556;DHT22;11956;53.184;8.578;2022-12-18T14:10:41;-1.00;99.90
23556;DHT22;11956;53.184;8.578;2022-12-18T14:13:43;-1.10;99.90
23556;DHT22;11956;53.184;8.578;2022-12-18T14:16:46;-1.00;99.90
23556;DHT22;11956;53.184;8.578;2022-12-18T14:19:50;-1.00;99.90
23556;DHT22;11956;53.184;8.578;2022-12-18T14:22:52;-1.00;99.90
23556;DHT22;11956;53.184;8.578;2022-12-18T14:25:53;-1.00;99.90
23556;DHT22;11956;53.184;8.578;2022-12-18T14:28:55;-1.00;99.90
23556;DHT22;11956;53.184;8.578;2022-12-18T14:32:09;-1.00;99.90
23556;DHT22;11956;53.184;8.578;2022-12-18T14:35:15;-1.00;99.90
23556;DHT22;11956;53.184;8.578;2022-12-18T14:41:17;-1.00;99.90
23556;DHT22;11956;53.184;8.578;2022-12-18T14:44:19;-1.10;99.90
23556;DHT22;11956;53.184;8.578;2022-12-18T14:47:21;-1.00;99.90
23556;DHT22;11956;53.184;8.578;2022-12-18T14:50:22;-1.00;99.90
23556;DHT22;11956;53.184;8.578;2022-12-18T14:53:34;-1.10;99.90
23556;DHT22;11956;53.184;8.578;2022-12-18T14:56:47;-1.00;99.90
23556;DHT22;11956;53.184;8.578;2022-12-18T14:59:50;-1.00;99.90
23556;DHT22;11956;53.184;8.578;2022-12-18T15:02:56;-1.00;99.90
23556;DHT22;11956;53.184;8.578;2022-12-18T15:06:15;-0.90;99.90
23556;DHT22;11956;53.184;8.578;2022-12-18T15:09:24;-0.90;99.90
23556;DHT22;11956;53.184;8.578;2022-12-18T15:12:37;-1.00;99.90
23556;DHT22;11956;53.184;8.578;2022-12-18T15:18:43;-1.00;99.90
23556;DHT22;11956;53.184;8.578;2022-12-18T15:21:48;-1.00;99.90
23556;DHT22;11956;53.184;8.578;2022-12-18T15:24:50;-1.00;99.90
23556;DHT22;11956;53.184;8.578;2022-12-18T15:27:51;-1.00;99.90
23556;DHT22;11956;53.184;8.578;2022-12-18T15:31:00;-1.00;99.90
23556;DHT22;11956;53.184;8.578;2022-12-18T15:34:21;-0.90;99.90
23556;DHT22;11956;53.184;8.578;2022-12-18T15:37:22;-1.00;99.90
23556;DHT22;11956;53.184;8.578;2022-12-18T15:40:24;-0.90;99.90
23556;DHT22;11956;53.184;8.578;2022-12-18T15:43:25;-0.90;99.90
23556;DHT22;11956;53.184;8.578;2022-12-18T15:46:36;-0.90;99.90
23556;DHT22;11956;53.184;8.578;2022-12-18T15:49:37;-0.80;99.90
23556;DHT22;11956;53.184;8.578;2022-12-18T15:52:43;-0.90;99.90
23556;DHT22;11956;53.184;8.578;2022-12-18T15:55:45;-0.90;99.90
23556;DHT22;11956;53.184;8.578;2022-12-18T15:59:11;-0.80;99.90
23556;DHT22;11956;53.184;8.578;2022-12-18T16:02:19;-0.80;99.90
23556;DHT22;11956;53.184;8.578;2022-12-18T16:05:22;-0.80;99.90
23556;DHT22;11956;53.184;8.578;2022-12-18T16:08:24;-0.80;99.90
23556;DHT22;11956;53.184;8.578;2022-12-18T16:11:29;-0.90;99.90
23556;DHT22;11956;53.184;8.578;2022-12-18T16:14:44;-0.80;99.90
23556;DHT22;11956;53.184;8.578;2022-12-18T16:17:46;-0.80;99.90
23556;DHT22;11956;53.184;8.578;2022-12-18T16:20:48;-0.80;99.90
23556;DHT22;11956;53.184;8.578;2022-12-18T16:23:49;-0.80;99.90
23556;DHT22;11956;53.184;8.578;2022-12-18T16:26:50;-0.80;99.90
23556;DHT22;11956;53.184;8.578;2022-12-18T16:29:52;-0.80;99.90
23556;DHT22;11956;53.184;8.578;2022-12-18T16:32:54;-0.80;99.90
23556;DHT22;11956;53.184;8.578;2022-12-18T16:35:55;-0.70;99.90
23556;DHT22;11956;53.184;8.578;2022-12-18T16:38:56;-0.70;99.90
23556;DHT22;11956;53.184;8.578;2022-12-18T16:41:57;-0.70;99.90
23556;DHT22;11956;53.184;8.578;2022-12-18T16:44:58;-0.70;99.90
23556;DHT22;11956;53.184;8.578;2022-12-18T16:48:00;-0.70;99.90
23556;DHT22;11956;53.184;8.578;2022-12-18T16:51:03;-0.70;99.90
23556;DHT22;11956;53.184;8.578;2022-12-18T16:54:05;-0.70;99.90
23556;DHT22;11956;53.184;8.578;2022-12-18T16:57:06;-0.70;99.90
23556;DHT22;11956;53.184;8.578;2022-12-18T17:00:07;-0.70;99.90
23556;DHT22;11956;53.184;8.578;2022-12-18T17:03:12;-0.80;99.90
23556;DHT22;11956;53.184;8.578;2022-12-18T17:06:14;-0.80;99.90
23556;DHT22;11956;53.184;8.578;2022-12-18T17:09:17;-0.80;99.90
23556;DHT22;11956;53.184;8.578;2022-12-18T17:12:27;-0.80;99.90
23556;DHT22;11956;53.184;8.578;2022-12-18T17:15:28;-0.80;99.90
23556;DHT22;11956;53.184;8.578;2022-12-18T17:18:30;-0.70;99.90
23556;DHT22;11956;53.184;8.578;2022-12-18T17:21:31;-0.80;99.90
23556;DHT22;11956;53.184;8.578;2022-12-18T17:24:32;-0.80;99.90
23556;DHT22;11956;53.184;8.578;2022-12-18T17:27:33;-0.80;99.90
23556;DHT22;11956;53.184;8.578;2022-12-18T17:30:34;-0.80;99.90
23556;DHT22;11956;53.184;8.578;2022-12-18T17:33:35;-0.70;99.90
23556;DHT22;11956;53.184;8.578;2022-12-18T17:36:35;-0.70;99.90
23556;DHT22;11956;53.184;8.578;2022-12-18T17:39:36;-0.70;99.90
23556;DHT22;11956;53.184;8.578;2022-12-18T17:42:37;-0.80;99.90
23556;DHT22;11956;53.184;8.578;2022-12-18T17:45:39;-0.80;99.90
23556;DHT22;11956;53.184;8.578;2022-12-18T17:48:41;-0.70;99.90
23556;DHT22;11956;53.184;8.578;2022-12-18T17:51:41;-0.70;99.90
23556;DHT22;11956;53.184;8.578;2022-12-18T17:54:43;-0.60;99.90
23556;DHT22;11956;53.184;8.578;2022-12-18T17:57:44;-0.70;99.90
23556;DHT22;11956;53.184;8.578;2022-12-18T18:00:45;-0.70;99.90
23556;DHT22;11956;53.184;8.578;2022-12-18T18:03:46;-0.70;99.90
23556;DHT22;11956;53.184;8.578;2022-12-18T18:06:47;-0.70;99.90
23556;DHT22;11956;53.184;8.578;2022-12-18T18:09:48;-0.70;99.90
23556;DHT22;11956;53.184;8.578;2022-12-18T18:12:49;-0.70;99.90
23556;DHT22;11956;53.184;8.578;2022-12-18T18:16:09;-0.70;99.90
23556;DHT22;11956;53.184;8.578;2022-12-18T18:19:15;-0.60;99.90
23556;DHT22;11956;53.184;8.578;2022-12-18T18:22:17;-0.70;99.90
23556;DHT22;11956;53.184;8.578;2022-12-18T18:25:19;-0.60;99.90
23556;DHT22;11956;53.184;8.578;2022-12-18T18:28:20;-0.70;99.90
23556;DHT22;11956;53.184;8.578;2022-12-18T18:31:25;-0.70;99.90
23556;DHT22;11956;53.184;8.578;2022-12-18T18:34:30;-0.70;99.90
23556;DHT22;11956;53.184;8.578;2022-12-18T18:37:31;-0.70;99.90
23556;DHT22;11956;53.184;8.578;2022-12-18T18:40:32;-0.70;99.90
23556;DHT22;11956;53.184;8.578;2022-12-18T18:43:34;-0.70;99.90
23556;DHT22;11956;53.184;8.578;2022-12-18T18:46:34;-0.70;99.90
23556;DHT22;11956;53.184;8.578;2022-12-18T18:49:35;-0.70;99.90
23556;DHT22;11956;53.184;8.578;2022-12-18T18:52:36;-0.70;99.90
23556;DHT22;11956;53.184;8.578;2022-12-18T18:55:37;-0.70;99.90
23556;DHT22;11956;53.184;8.578;2022-12-18T18:58:38;-0.70;99.90
23556;DHT22;11956;53.184;8.578;2022-12-18T19:01:39;-0.70;99.90
23556;DHT22;11956;53.184;8.578;2022-12-18T19:04:41;-0.70;99.90
23556;DHT22;11956;53.184;8.578;2022-12-18T19:07:42;-0.70;99.90
23556;DHT22;11956;53.184;8.578;2022-12-18T19:10:42;-0.70;99.90
23556;DHT22;11956;53.184;8.578;2022-12-18T19:13:44;-0.70;99.90
23556;DHT22;11956;53.184;8.578;2022-12-18T19:16:44;-0.80;99.90
23556;DHT22;11956;53.184;8.578;2022-12-18T19:19:46;-0.70;99.90
23556;DHT22;11956;53.184;8.578;2022-12-18T19:22:47;-0.70;99.90
23556;DHT22;11956;53.184;8.578;2022-12-18T19:25:48;-0.70;99.90
23556;DHT22;11956;53.184;8.578;2022-12-18T19:28:50;-0.70;99.90
23556;DHT22;11956;53.184;8.578;2022-12-18T19:31:51;-0.70;99.90
23556;DHT22;11956;53.184;8.578;2022-12-18T19:34:52;-0.70;99.90
23556;DHT22;11956;53.184;8.578;2022-12-18T19:37:53;-0.80;99.90
23556;DHT22;11956;53.184;8.578;2022-12-18T19:40:54;-0.80;99.90
23556;DHT22;11956;53.184;8.578;2022-12-18T19:43:55;-0.80;99.90
23556;DHT22;11956;53.184;8.578;2022-12-18T19:46:57;-0.90;99.90
23556;DHT22;11956;53.184;8.578;2022-12-18T19:49:57;-0.80;99.90
23556;DHT22;11956;53.184;8.578;2022-12-18T19:52:59;-0.90;99.90
23556;DHT22;11956;53.184;8.578;2022-12-18T19:56:08;-0.90;99.90
23556;DHT22;11956;53.184;8.578;2022-12-18T19:59:12;-0.90;99.90
23556;DHT22;11956;53.184;8.578;2022-12-18T20:02:13;-0.90;99.90
23556;DHT22;11956;53.184;8.578;2022-12-18T20:05:14;-1.00;99.90
23556;DHT22;11956;53.184;8.578;2022-12-18T20:08:15;-0.90;99.90
23556;DHT22;11956;53.184;8.578;2022-12-18T20:11:16;-0.90;99.90
23556;DHT22;11956;53.184;8.578;2022-12-18T20:14:17;-0.80;99.90
23556;DHT22;11956;53.184;8.578;2022-12-18T20:17:18;-0.80;99.90
23556;DHT22;11956;53.184;8.578;2022-12-18T20:20:19;-0.80;99.90
23556;DHT22;11956;53.184;8.578;2022-12-18T20:23:20;-0.80;99.90
23556;DHT22;11956;53.184;8.578;2022-12-18T20:26:22;-0.80;99.90
23556;DHT22;11956;53.184;8.578;2022-12-18T20:29:23;-0.80;99.90
23556;DHT22;11956;53.184;8.578;2022-12-18T20:32:24;-0.80;99.90
23556;DHT22;11956;53.184;8.578;2022-12-18T20:35:25;-0.70;99.90
23556;DHT22;11956;53.184;8.578;2022-12-18T20:38:29;-0.80;99.90
23556;DHT22;11956;53.184;8.578;2022-12-18T20:41:30;-0.80;99.90
23556;DHT22;11956;53.184;8.578;2022-12-18T20:44:34;-0.80;99.90
23556;DHT22;11956;53.184;8.578;2022-12-18T20:47:35;-0.70;99.90
23556;DHT22;11956;53.184;8.578;2022-12-18T20:50:36;-0.70;99.90
23556;DHT22;11956;53.184;8.578;2022-12-18T20:53:37;-0.70;99.90
23556;DHT22;11956;53.184;8.578;2022-12-18T20:56:38;-0.70;99.90